Portada
METAR-TAF:

METAR-TAF

Aeroports :

Moline, Illinois, Estats Units d'Amèrica

latitud: 41-27-05N, longitud: 090-30-53W, altitud: 179 m

Observació

L'informe es va fer fa 28 minuts, a les 03:52 UTC
Vent calma
Temperatura 21°C
Humitat 88%
Pressió 1016 hPa
Visibilitat: 12.9 km
Cel clar

METAR: KMLI 180352Z AUTO 00000KT 8SM CLR 21/19 A3000 RMK AO2 SLP154 T02060194

Hora: 23:20 (04:20 UTC)

Pronòstic

L'informe es va fer fa 5 hores i 0 minuts, a les 23:20 UTC
Pronòstic vàlid del 18 a les 00 UTC al 18 a les 24 UTC
Vent 8 kt del Nord
Visibilitat: 10 km
Núvols disperses a una alçada de 5000 ft
A partir de les 18 a les 1000 UTC
Vent 2 kt amb direcció variable
Visibilitat: 4.8 km
Escasses núvols a una alçada de 300 ft
boirina
A partir de les 18 a les 1400 UTC
Vent 5 kt del Nord/Nord-Est
Visibilitat: 10 km
Núvols disperses a una alçada de 2500 ft

TAF: KMLI 172320Z 1800/1824 35008KT P6SM SCT050 FM181000 VRB02KT 3SM BR FEW003 FM181400 02005KT P6SM SCT025

Observacions i pronòstics meteorològics de més de 4000 aeroports (METAR i TAF).

Les estacions disponibles són els punts grocs i vermells al mapa.

Posi el ratolí al punt desitjat per veure el nom de l'estació.

Feu clic per veure les observacions i els pronòstics meteorològics.

Per canviar el mapa: feu clic els botons verds amb una creu de color negre per apropar; al botó verd amb un guió per allunyar la imatge; o en les fletxes verdes per a mapes adjacents.


METAR-TAF: